Terminal Aerodrome Forecast
Issued by NWS Bismarck, ND

Home | Current Version | Previous Version | Graphics & Text | Print | Product List | Glossary On
Versions: 1 2 3 4 5 6 7 8 9 10 11 12 13 14 15 16 17 18 19 20
000
FTUS43 KBIS 232300
TAFISN
TAF
KISN 232337Z 2400/2424 29018G24KT P6SM SCT015 BKN035
     FM240200 30015KT P6SM VCSH BKN020
     FM241500 01009KT 2SM -SN BKN012 OVC020=

USA.gov is the U.S. government's official web portal to all federal, state and local government web resources and services.